Argonne, Minnesota
Current Conditions -  °F | °C
As of 2:26 PM on Friday 21 Nov 2014 (Local Time) from KLVN Reporting Station
Clear Clear  
Wind Chill: 13°   Ceiling: Unl
Heat Index: 25°   Visibility: 10mi
Dew Point: 18°   Wind: 14mph
Humidity: 74%   Direction: 190°S
Pressure: 30.04"   Gusts: 22mph
Location:  44.6349°N, 93.283°W
Report Text: KLVN 212026Z AUTO 19012G19KT 10SM CLR M04/M08 A3004 RMK AO2
Loading
Personal Weather Stations






























Interactive Weather Map New forecast layout! Learn more

10-Day Weather Forecast

Advertisements
Track Severe Weather on mobile